Time;durP1;ratioP1;P1;durP2;ratioP2;P2;SDS_P1;SDS_P2;PMS_P1;PMS_P2;Temp;Humidity;BMP_temperature;BMP_pressure;BME280_temperature;BME280_humidity;BME280_pressure;Samples;Min_cycle;Max_cycle;Signal;HPM_P1;HPM_P2
2023/04/03 00:03:18;;;;;;;;;;;16.80;59.50;;;;;;10132804;28;94917;-65
2023/04/03 00:08:20;;;;;;;;;;;16.80;59.40;;;;;;10133171;28;93354;-65
2023/04/03 00:13:22;;;;;;;;;;;16.70;59.30;;;;;;10113136;28;96117;-65
2023/04/03 00:18:24;;;;;;;;;;;16.70;59.30;;;;;;10132298;28;93174;-65
2023/04/03 00:23:26;;;;;;;;;;;16.70;59.30;;;;;;10132160;28;93707;-64
2023/04/03 00:28:28;;;;;;;;;;;16.70;59.20;;;;;;10132592;28;93496;-65
2023/04/03 00:33:29;;;;;;;;;;;16.70;59.20;;;;;;10132512;28;94541;-65
2023/04/03 00:38:31;;;;;;;;;;;16.70;59.10;;;;;;10132796;28;93285;-65
2023/04/03 00:43:33;;;;;;;;;;;16.70;59.00;;;;;;10132004;28;93793;-65
2023/04/03 00:48:45;;;;;;;;;;;16.70;58.90;;;;;;10130909;28;93020;-65
2023/04/03 00:54:00;;;;;;;;;;;16.60;58.80;;;;;;10131200;28;93349;-65
2023/04/03 00:59:10;;;;;;;;;;;16.60;58.80;;;;;;10113144;28;93304;-65
2023/04/03 01:04:32;;;;;;;;;;;16.60;58.70;;;;;;10127064;28;96080;-65
2023/04/03 01:09:34;;;;;;;;;;;16.60;58.70;;;;;;10131208;28;94647;-65
2023/04/03 01:14:36;;;;;;;;;;;16.60;58.60;;;;;;10130476;28;93298;-65
2023/04/03 01:19:40;;;;;;;;;;;16.60;58.60;;;;;;10130502;28;93596;-65
2023/04/03 01:24:41;;;;;;;;;;;16.60;58.60;;;;;;10130874;28;93500;-65
2023/04/03 01:29:43;;;;;;;;;;;16.50;58.40;;;;;;10130657;28;94044;-65
2023/04/03 01:34:45;;;;;;;;;;;16.50;58.30;;;;;;10129566;28;94932;-65
2023/04/03 01:39:47;;;;;;;;;;;16.50;58.30;;;;;;10114024;28;93669;-65
2023/04/03 01:44:49;;;;;;;;;;;16.50;58.30;;;;;;10129653;28;93665;-64
2023/04/03 01:49:50;;;;;;;;;;;16.50;58.20;;;;;;10129619;28;95647;-65
2023/04/03 01:54:52;;;;;;;;;;;16.50;58.10;;;;;;10127069;28;95935;-65
2023/04/03 01:59:54;;;;;;;;;;;16.40;58.00;;;;;;10129086;28;94550;-65
2023/04/03 02:04:55;;;;;;;;;;;16.40;58.00;;;;;;10112069;28;93245;-65
2023/04/03 02:09:57;;;;;;;;;;;16.40;57.90;;;;;;10128385;28;93424;-65
2023/04/03 02:14:59;;;;;;;;;;;16.40;57.90;;;;;;10128714;28;94445;-65
2023/04/03 02:20:01;;;;;;;;;;;16.40;57.80;;;;;;10128551;28;93915;-65
2023/04/03 02:25:02;;;;;;;;;;;16.40;57.90;;;;;;10128420;28;93999;-66
2023/04/03 02:30:05;;;;;;;;;;;16.40;57.80;;;;;;10129343;28;92802;-66
2023/04/03 02:35:06;;;;;;;;;;;16.30;57.70;;;;;;10127793;28;94547;-66
2023/04/03 02:40:08;;;;;;;;;;;16.40;57.70;;;;;;10127499;28;94456;-65
2023/04/03 02:45:10;;;;;;;;;;;16.40;57.70;;;;;;10125210;28;96658;-65
2023/04/03 02:50:11;;;;;;;;;;;16.30;57.50;;;;;;10126834;28;94368;-65
2023/04/03 02:55:14;;;;;;;;;;;16.30;57.50;;;;;;10127972;28;94618;-65
2023/04/03 03:00:16;;;;;;;;;;;16.30;57.50;;;;;;10111152;28;93900;-65
2023/04/03 03:05:18;;;;;;;;;;;16.30;57.50;;;;;;10095207;28;93898;-64
2023/04/03 03:10:20;;;;;;;;;;;16.30;57.50;;;;;;10126531;28;93453;-65
2023/04/03 03:15:22;;;;;;;;;;;16.30;57.50;;;;;;10099725;28;93570;-65
2023/04/03 03:20:23;;;;;;;;;;;16.30;57.40;;;;;;10135783;28;94169;-64
2023/04/03 03:25:25;;;;;;;;;;;16.20;57.40;;;;;;10133589;28;92567;-65
2023/04/03 03:30:26;;;;;;;;;;;16.20;57.40;;;;;;10133592;28;93521;-64
2023/04/03 03:35:28;;;;;;;;;;;16.20;57.40;;;;;;10113840;28;95870;-64
2023/04/03 03:40:30;;;;;;;;;;;16.20;57.40;;;;;;10132974;28;94078;-64
2023/04/03 03:45:32;;;;;;;;;;;16.20;57.40;;;;;;10133117;28;94081;-65
2023/04/03 05:02:52;;;;;;;;;;;16.50;56.70;;;;;;10071440;28;93029;-71
2023/04/03 05:07:53;;;;;;;;;;;16.80;55.90;;;;;;10051739;29;93708;-70
2023/04/03 05:12:55;;;;;;;;;;;16.90;55.40;;;;;;10090739;28;93242;-68
2023/04/03 05:17:57;;;;;;;;;;;16.90;55.20;;;;;;10092010;28;92625;-69
2023/04/03 05:22:59;;;;;;;;;;;16.90;55.20;;;;;;10091666;28;94531;-68
2023/04/03 05:28:01;;;;;;;;;;;16.90;55.20;;;;;;10092149;28;94646;-66
2023/04/03 05:33:03;;;;;;;;;;;16.80;55.40;;;;;;10088440;28;96159;-68
2023/04/03 05:38:05;;;;;;;;;;;16.80;56.60;;;;;;10091506;28;94471;-72
2023/04/03 05:43:07;;;;;;;;;;;16.80;57.10;;;;;;10089859;28;94604;-73
2023/04/03 05:48:08;;;;;;;;;;;16.70;57.30;;;;;;10100150;28;93658;-72
2023/04/03 05:53:17;;;;;;;;;;;16.80;57.60;;;;;;10170189;28;93450;-73
2023/04/03 05:58:19;;;;;;;;;;;16.90;58.70;;;;;;10170232;28;94085;-74
2023/04/03 06:03:21;;;;;;;;;;;17.20;58.10;;;;;;10169359;28;93276;-70
2023/04/03 06:08:23;;;;;;;;;;;17.40;57.50;;;;;;10170360;28;92778;-70
2023/04/03 06:13:25;;;;;;;;;;;17.60;57.10;;;;;;10150954;28;94554;-71
2023/04/03 06:18:27;;;;;;;;;;;17.80;56.70;;;;;;10168404;28;93442;-72
2023/04/03 06:23:29;;;;;;;;;;;17.80;56.30;;;;;;10165804;28;95603;-71
2023/04/03 06:28:31;;;;;;;;;;;17.80;56.10;;;;;;10168644;28;94144;-73
2023/04/03 06:33:33;;;;;;;;;;;17.80;56.10;;;;;;10167779;28;93665;-73
2023/04/03 06:38:34;;;;;;;;;;;17.70;56.20;;;;;;10169964;28;94305;-72
2023/04/03 06:43:36;;;;;;;;;;;17.80;56.50;;;;;;10168048;28;93490;-73
2023/04/03 06:48:38;;;;;;;;;;;17.80;56.50;;;;;;10165817;28;93305;-72
2023/04/03 06:53:40;;;;;;;;;;;18.00;56.50;;;;;;10167735;28;94095;-73
2023/04/03 06:58:43;;;;;;;;;;;18.10;56.30;;;;;;10171470;28;92684;-73
2023/04/03 07:03:46;;;;;;;;;;;18.20;56.10;;;;;;10172358;28;94439;-73
2023/04/03 07:08:48;;;;;;;;;;;18.10;56.10;;;;;;10173637;28;93233;-73
2023/04/03 07:13:50;;;;;;;;;;;18.10;56.10;;;;;;10165739;28;94961;-73
2023/04/03 07:18:52;;;;;;;;;;;18.10;56.20;;;;;;10167511;28;93593;-73
2023/04/03 07:23:54;;;;;;;;;;;18.20;56.30;;;;;;10167456;28;94820;-73
2023/04/03 07:28:56;;;;;;;;;;;18.20;56.20;;;;;;10166995;28;93770;-73
2023/04/03 07:33:58;;;;;;;;;;;18.10;56.30;;;;;;10167338;28;94366;-73
2023/04/03 07:39:00;;;;;;;;;;;18.10;56.40;;;;;;10166616;28;93790;-74
2023/04/03 07:44:04;;;;;;;;;;;18.20;56.60;;;;;;10174633;28;93296;-73
2023/04/03 07:49:06;;;;;;;;;;;18.30;56.70;;;;;;10174064;28;95485;-73
2023/04/03 07:54:08;;;;;;;;;;;18.40;56.60;;;;;;10167903;28;93888;-73
2023/04/03 07:59:11;;;;;;;;;;;18.30;56.50;;;;;;10168899;28;94435;-73
2023/04/03 08:04:12;;;;;;;;;;;18.30;56.50;;;;;;10169656;28;95427;-73
2023/04/03 08:09:15;;;;;;;;;;;18.30;57.40;;;;;;10155741;28;94394;-73
2023/04/03 08:14:18;;;;;;;;;;;18.30;57.50;;;;;;10154956;28;93225;-73
2023/04/03 08:19:20;;;;;;;;;;;18.30;57.50;;;;;;10155507;28;93955;-74
2023/04/03 08:24:25;;;;;;;;;;;18.40;57.40;;;;;;10155492;28;93888;-74
2023/04/03 08:29:26;;;;;;;;;;;18.50;57.40;;;;;;10171872;28;93138;-74
2023/04/03 08:34:28;;;;;;;;;;;18.60;57.20;;;;;;10172287;28;95572;-74
2023/04/03 08:39:30;;;;;;;;;;;18.50;57.20;;;;;;10172809;28;92971;-74
2023/04/03 08:44:45;;;;;;;;;;;18.50;57.40;;;;;;10154857;28;92828;-74
2023/04/03 08:49:51;;;;;;;;;;;18.40;57.50;;;;;;10170715;28;93923;-73
2023/04/03 08:54:57;;;;;;;;;;;18.40;57.80;;;;;;10151590;28;95790;-73
2023/04/03 09:00:02;;;;;;;;;;;18.30;58.00;;;;;;10171948;28;93789;-74
2023/04/03 09:05:18;;;;;;;;;;;18.20;58.20;;;;;;10170935;28;92964;-74
2023/04/03 09:10:24;;;;;;;;;;;18.20;58.30;;;;;;10169981;28;93390;-74
2023/04/03 09:15:26;;;;;;;;;;;18.10;58.50;;;;;;10170352;28;93447;-74
2023/04/03 09:20:43;;;;;;;;;;;18.10;58.70;;;;;;10170753;28;93953;-74
2023/04/03 09:25:45;;;;;;;;;;;18.10;58.70;;;;;;10169999;28;93497;-73
2023/04/03 09:30:47;;;;;;;;;;;18.10;58.90;;;;;;10170737;28;92431;-73
2023/04/03 09:35:50;;;;;;;;;;;18.10;58.90;;;;;;10137332;28;93864;-74
2023/04/03 09:41:12;;;;;;;;;;;18.10;59.00;;;;;;10169726;28;94201;-69
2023/04/03 09:46:34;;;;;;;;;;;18.20;59.20;;;;;;10167082;28;96939;-74
2023/04/03 09:51:36;;;;;;;;;;;18.40;58.80;;;;;;10168553;28;93736;-74
2023/04/03 09:56:38;;;;;;;;;;;18.60;57.80;;;;;;10152622;28;93472;-74
2023/04/03 10:01:42;;;;;;;;;;;18.70;57.50;;;;;;10153154;28;93959;-74
2023/04/03 10:06:48;;;;;;;;;;;18.80;57.10;;;;;;10176802;28;92977;-73
2023/04/03 10:12:06;;;;;;;;;;;18.90;57.10;;;;;;10173816;28;95653;-73
2023/04/03 10:17:09;;;;;;;;;;;18.90;56.90;;;;;;10150912;28;93464;-74
2023/04/03 10:22:17;;;;;;;;;;;18.90;57.10;;;;;;10152866;28;93732;-74
2023/04/03 10:27:37;;;;;;;;;;;18.90;57.20;;;;;;10150675;28;93281;-74
2023/04/03 10:32:54;;;;;;;;;;;18.90;57.10;;;;;;10167983;28;94118;-74
2023/04/03 10:37:56;;;;;;;;;;;18.80;57.20;;;;;;10148314;28;96958;-74
2023/04/03 10:42:58;;;;;;;;;;;18.80;57.20;;;;;;10150509;28;93305;-74
2023/04/03 10:48:07;;;;;;;;;;;18.80;57.30;;;;;;10166141;28;93762;-74
2023/04/03 10:53:09;;;;;;;;;;;18.70;57.10;;;;;;10168030;28;93918;-74
2023/04/03 10:58:18;;;;;;;;;;;18.70;57.30;;;;;;10168755;28;94290;-74
2023/04/03 11:03:30;;;;;;;;;;;18.60;57.40;;;;;;10167997;28;94167;-74
2023/04/03 11:08:55;;;;;;;;;;;18.60;57.40;;;;;;10168109;28;94620;-74
2023/04/03 11:14:01;;;;;;;;;;;18.50;57.50;;;;;;10166885;28;92726;-74
2023/04/03 11:19:23;;;;;;;;;;;18.40;57.40;;;;;;10150318;28;113987;-74
2023/04/03 11:24:27;;;;;;;;;;;18.40;57.70;;;;;;10166887;28;93798;-74
2023/04/03 11:29:34;;;;;;;;;;;18.40;57.70;;;;;;10164457;28;95792;-75
2023/04/03 11:34:40;;;;;;;;;;;18.30;57.80;;;;;;10170380;28;93097;-74
2023/04/03 11:39:48;;;;;;;;;;;18.30;57.90;;;;;;10174649;28;93650;-74
2023/04/03 11:44:50;;;;;;;;;;;18.20;57.90;;;;;;10156704;28;93579;-74
2023/04/03 11:49:57;;;;;;;;;;;18.20;58.00;;;;;;10173071;28;92710;-74
2023/04/03 11:54:59;;;;;;;;;;;18.10;58.10;;;;;;10173867;28;94852;-74
2023/04/03 12:00:21;;;;;;;;;;;18.10;58.10;;;;;;10173918;28;93529;-74
2023/04/03 12:05:26;;;;;;;;;;;18.10;58.10;;;;;;10173407;28;93019;-74
2023/04/03 12:10:27;;;;;;;;;;;18.00;58.20;;;;;;10173632;28;93967;-73
2023/04/03 12:15:36;;;;;;;;;;;18.00;58.20;;;;;;10173465;28;93447;-74
2023/04/03 12:20:57;;;;;;;;;;;18.00;58.20;;;;;;10171340;28;96779;-73
2023/04/03 12:26:00;;;;;;;;;;;17.90;58.30;;;;;;10174918;28;94058;-74
2023/04/03 12:31:03;;;;;;;;;;;17.90;58.30;;;;;;10173899;28;94440;-74
2023/04/03 12:36:15;;;;;;;;;;;17.90;58.30;;;;;;10156484;28;92850;-75
2023/04/03 12:41:21;;;;;;;;;;;17.90;58.30;;;;;;10172541;28;93873;-74
2023/04/03 12:46:23;;;;;;;;;;;17.80;58.30;;;;;;10171254;28;94559;-74
2023/04/03 12:51:34;;;;;;;;;;;17.80;58.50;;;;;;10170960;28;94639;-73
2023/04/03 12:56:36;;;;;;;;;;;17.80;58.50;;;;;;10172726;28;93789;-73
2023/04/03 13:01:38;;;;;;;;;;;17.80;58.50;;;;;;10153316;28;93787;-73
2023/04/03 13:06:41;;;;;;;;;;;17.80;58.70;;;;;;10170377;28;93725;-74
2023/04/03 13:11:44;;;;;;;;;;;17.80;58.70;;;;;;10152321;28;96917;-74
2023/04/03 13:17:09;;;;;;;;;;;17.80;58.70;;;;;;10171748;28;93274;-74
2023/04/03 13:22:16;;;;;;;;;;;17.80;58.70;;;;;;10170545;28;94449;-74
2023/04/03 13:27:18;;;;;;;;;;;17.80;58.70;;;;;;10153722;28;93466;-74
2023/04/03 13:32:22;;;;;;;;;;;17.80;58.60;;;;;;10169806;28;93480;-74
2023/04/03 13:37:26;;;;;;;;;;;17.80;58.70;;;;;;10170193;28;93304;-74
2023/04/03 13:42:29;;;;;;;;;;;17.80;58.60;;;;;;10152911;28;93772;-74
2023/04/03 13:47:38;;;;;;;;;;;17.80;58.60;;;;;;10170161;28;93735;-73
2023/04/03 13:52:51;;;;;;;;;;;17.80;58.70;;;;;;10169270;28;94534;-73
2023/04/03 13:57:55;;;;;;;;;;;17.70;58.70;;;;;;10168625;28;93478;-74
2023/04/03 14:02:57;;;;;;;;;;;17.70;58.70;;;;;;10166620;28;96302;-73
2023/04/03 14:08:00;;;;;;;;;;;17.70;58.70;;;;;;10169406;28;94611;-74
2023/04/03 14:13:03;;;;;;;;;;;17.70;58.80;;;;;;10168870;28;93776;-74
2023/04/03 14:18:04;;;;;;;;;;;17.70;58.80;;;;;;10168921;28;93533;-74
2023/04/03 14:23:08;;;;;;;;;;;17.70;58.90;;;;;;10168609;28;94090;-74
2023/04/03 14:28:18;;;;;;;;;;;17.70;58.90;;;;;;10168236;28;93357;-73
2023/04/03 14:33:21;;;;;;;;;;;17.70;58.90;;;;;;10150881;28;93772;-73
2023/04/03 14:38:27;;;;;;;;;;;17.70;59.00;;;;;;10169768;28;91835;-73
2023/04/03 14:43:29;;;;;;;;;;;17.70;58.90;;;;;;10169021;28;93422;-73
2023/04/03 14:48:31;;;;;;;;;;;17.70;58.90;;;;;;10168077;28;94300;-73
2023/04/03 14:53:33;;;;;;;;;;;17.80;59.00;;;;;;10149251;28;96412;-73
2023/04/03 14:58:40;;;;;;;;;;;17.80;58.90;;;;;;10168055;28;93355;-74
2023/04/03 15:03:42;;;;;;;;;;;17.80;58.90;;;;;;10151952;28;93881;-73
2023/04/03 15:08:45;;;;;;;;;;;17.80;58.90;;;;;;10170512;28;93147;-73
2023/04/03 15:13:47;;;;;;;;;;;17.80;58.80;;;;;;10175128;28;93468;-74
2023/04/03 15:18:49;;;;;;;;;;;17.80;58.90;;;;;;10157600;28;93531;-74
2023/04/03 15:23:51;;;;;;;;;;;17.80;58.90;;;;;;10158899;28;94823;-73
2023/04/03 15:28:52;;;;;;;;;;;17.80;59.00;;;;;;10175852;28;93556;-73
2023/04/03 15:33:54;;;;;;;;;;;17.90;59.00;;;;;;10174201;28;94192;-74
2023/04/03 15:38:56;;;;;;;;;;;17.90;59.00;;;;;;10175733;28;93487;-73
2023/04/03 15:43:58;;;;;;;;;;;17.90;59.10;;;;;;10171222;28;95912;-74
2023/04/03 15:49:00;;;;;;;;;;;18.00;59.30;;;;;;10172565;28;94539;-74
2023/04/03 15:54:02;;;;;;;;;;;18.00;59.30;;;;;;10174051;28;94470;-73
2023/04/03 15:59:04;;;;;;;;;;;18.10;59.30;;;;;;10172884;28;94511;-74
2023/04/03 16:04:07;;;;;;;;;;;18.10;59.30;;;;;;10155235;28;94289;-74
2023/04/03 16:09:09;;;;;;;;;;;18.10;59.30;;;;;;10172339;28;93196;-74
2023/04/03 16:14:11;;;;;;;;;;;18.20;59.30;;;;;;10155368;28;93836;-74
2023/04/03 16:19:13;;;;;;;;;;;18.20;59.30;;;;;;10174345;28;93734;-74
2023/04/03 16:24:15;;;;;;;;;;;18.30;59.40;;;;;;10154539;28;94741;-74
2023/04/03 16:29:19;;;;;;;;;;;18.30;59.40;;;;;;10171739;28;94301;-74
2023/04/03 16:34:21;;;;;;;;;;;18.30;59.30;;;;;;10170860;28;97148;-74
2023/04/03 16:39:23;;;;;;;;;;;18.30;59.30;;;;;;10171632;28;93597;-74
2023/04/03 16:44:25;;;;;;;;;;;18.30;59.20;;;;;;10171364;28;95029;-74
2023/04/03 16:49:32;;;;;;;;;;;18.30;59.30;;;;;;10153543;28;93637;-73
2023/04/03 16:54:34;;;;;;;;;;;18.30;59.30;;;;;;10171717;28;93952;-74
2023/04/03 16:59:36;;;;;;;;;;;18.30;59.30;;;;;;10170904;28;93670;-73
2023/04/03 17:04:38;;;;;;;;;;;18.20;59.20;;;;;;10172305;28;93403;-74
2023/04/03 17:09:39;;;;;;;;;;;18.20;59.40;;;;;;10154154;28;92727;-73
2023/04/03 17:14:41;;;;;;;;;;;18.10;59.40;;;;;;10153552;28;93781;-74
2023/04/03 17:19:43;;;;;;;;;;;18.10;59.40;;;;;;10170559;28;93536;-74
2023/04/03 17:24:45;;;;;;;;;;;18.00;59.30;;;;;;10168173;28;96004;-74
2023/04/03 17:29:46;;;;;;;;;;;18.00;59.40;;;;;;10170784;28;94523;-74
2023/04/03 17:34:48;;;;;;;;;;;17.90;59.50;;;;;;10171397;28;94607;-74
2023/04/03 17:39:50;;;;;;;;;;;17.90;59.50;;;;;;10147950;28;94144;-73
2023/04/03 17:44:52;;;;;;;;;;;17.80;59.20;;;;;;10117659;28;94079;-73
2023/04/03 17:49:54;;;;;;;;;;;17.80;59.00;;;;;;10131593;28;93839;-72
2023/04/03 17:54:56;;;;;;;;;;;17.80;60.10;;;;;;10113004;28;94779;-73
2023/04/03 17:59:57;;;;;;;;;;;17.90;59.30;;;;;;10130334;28;93694;-73
2023/04/03 18:04:59;;;;;;;;;;;17.90;59.20;;;;;;10112241;28;94811;-73
2023/04/03 18:10:03;;;;;;;;;;;17.90;59.10;;;;;;10130133;28;94153;-75
2023/04/03 18:15:05;;;;;;;;;;;17.80;58.90;;;;;;10126260;28;95891;-74
2023/04/03 18:20:09;;;;;;;;;;;17.80;58.90;;;;;;10129482;28;92841;-74
2023/04/03 18:25:13;;;;;;;;;;;17.80;58.70;;;;;;10128430;28;93611;-74
2023/04/03 18:30:15;;;;;;;;;;;17.80;58.70;;;;;;10128928;28;94513;-73
2023/04/03 18:35:17;;;;;;;;;;;17.90;58.50;;;;;;10128732;28;94476;-74
2023/04/03 18:40:19;;;;;;;;;;;18.00;58.30;;;;;;10128145;28;94323;-73
2023/04/03 18:45:22;;;;;;;;;;;18.00;58.10;;;;;;10110720;28;93555;-73
2023/04/03 18:50:24;;;;;;;;;;;17.90;58.00;;;;;;10129291;28;92518;-74
2023/04/03 18:55:26;;;;;;;;;;;18.00;58.00;;;;;;10111405;28;94164;-73
2023/04/03 19:00:28;;;;;;;;;;;17.90;57.90;;;;;;10110857;28;94470;-73
2023/04/03 19:05:30;;;;;;;;;;;17.90;57.70;;;;;;10125114;28;96989;-72
2023/04/03 19:10:32;;;;;;;;;;;17.90;57.70;;;;;;10126760;28;94286;-73
2023/04/03 19:15:33;;;;;;;;;;;17.90;57.60;;;;;;10127241;28;93972;-73
2023/04/03 19:20:35;;;;;;;;;;;17.80;57.40;;;;;;10109486;28;93272;-71
2023/04/03 19:25:37;;;;;;;;;;;17.90;57.50;;;;;;10127210;28;93484;-71
2023/04/03 19:30:39;;;;;;;;;;;17.90;57.50;;;;;;10126295;28;94012;-72
2023/04/03 19:35:41;;;;;;;;;;;17.80;57.30;;;;;;10126082;28;93459;-71
2023/04/03 19:40:44;;;;;;;;;;;17.80;57.30;;;;;;10127400;28;92923;-71
2023/04/03 19:45:46;;;;;;;;;;;17.80;57.40;;;;;;10109184;28;93377;-72
2023/04/03 19:50:47;;;;;;;;;;;17.70;57.30;;;;;;10126048;28;93464;-71
2023/04/03 19:55:49;;;;;;;;;;;17.70;57.30;;;;;;10126747;28;96483;-71
2023/04/03 20:00:51;;;;;;;;;;;17.70;57.50;;;;;;10133277;28;93281;-71
2023/04/03 20:05:56;;;;;;;;;;;17.70;57.80;;;;;;10131728;28;93774;-71
2023/04/03 20:10:58;;;;;;;;;;;17.70;57.80;;;;;;10132693;28;94427;-71
2023/04/03 20:16:04;;;;;;;;;;;17.60;57.70;;;;;;10132619;28;95653;-71
2023/04/03 20:21:06;;;;;;;;;;;17.60;57.80;;;;;;10132091;28;93985;-70
2023/04/03 20:26:08;;;;;;;;;;;17.60;57.90;;;;;;10114967;28;93989;-71
2023/04/03 20:31:16;;;;;;;;;;;17.60;57.70;;;;;;10131641;28;92939;-71
2023/04/03 20:36:19;;;;;;;;;;;17.50;58.60;;;;;;10131904;28;94655;-71
2023/04/03 20:41:21;;;;;;;;;;;17.50;57.60;;;;;;10114249;28;93557;-71
2023/04/03 20:46:26;;;;;;;;;;;17.50;57.60;;;;;;10130050;28;95365;-71
2023/04/03 20:51:50;;;;;;;;;;;17.50;57.40;;;;;;10130449;28;93269;-71
2023/04/03 20:56:52;;;;;;;;;;;17.50;57.30;;;;;;10130380;28;93665;-71
2023/04/03 21:01:53;;;;;;;;;;;17.50;57.10;;;;;;10132033;28;92963;-71
2023/04/03 21:07:13;;;;;;;;;;;17.40;56.80;;;;;;10129858;28;93678;-71
2023/04/03 21:12:34;;;;;;;;;;;17.40;56.80;;;;;;10130424;28;93644;-72
2023/04/03 21:17:36;;;;;;;;;;;17.40;56.70;;;;;;10130395;28;93800;-71
2023/04/03 21:22:42;;;;;;;;;;;17.40;56.60;;;;;;10131383;28;93752;-71
2023/04/03 21:27:43;;;;;;;;;;;17.40;56.60;;;;;;10130098;28;93390;-72
2023/04/03 21:32:45;;;;;;;;;;;17.30;56.40;;;;;;10130995;28;94492;-71
2023/04/03 21:37:47;;;;;;;;;;;17.30;56.30;;;;;;10128108;28;95913;-72
2023/04/03 21:42:55;;;;;;;;;;;17.30;56.20;;;;;;10129327;28;92551;-72
2023/04/03 21:47:57;;;;;;;;;;;17.30;56.20;;;;;;10129901;28;95074;-71
2023/04/03 21:53:00;;;;;;;;;;;17.30;56.10;;;;;;10130677;28;94326;-73
2023/04/03 21:58:02;;;;;;;;;;;17.20;55.90;;;;;;10113209;28;94141;-71
2023/04/03 22:03:04;;;;;;;;;;;17.20;55.90;;;;;;10130096;28;93873;-71
2023/04/03 22:08:11;;;;;;;;;;;17.20;55.80;;;;;;10113181;28;96376;-71
2023/04/03 22:13:12;;;;;;;;;;;17.20;55.70;;;;;;10131439;28;93880;-71
2023/04/03 22:18:15;;;;;;;;;;;17.20;55.70;;;;;;10128679;28;93208;-71
2023/04/03 22:23:17;;;;;;;;;;;17.20;55.60;;;;;;10128753;28;93571;-72
2023/04/03 22:28:20;;;;;;;;;;;17.20;55.60;;;;;;10108624;28;95654;-72
2023/04/03 22:33:22;;;;;;;;;;;17.10;55.50;;;;;;10111800;28;95735;-72
2023/04/03 22:38:24;;;;;;;;;;;17.10;55.50;;;;;;10128224;28;93570;-71
2023/04/03 22:43:26;;;;;;;;;;;17.10;55.50;;;;;;10128015;28;93762;-72
2023/04/03 22:48:29;;;;;;;;;;;17.10;55.50;;;;;;10110652;28;93566;-71
2023/04/03 22:53:31;;;;;;;;;;;17.10;55.40;;;;;;10128996;28;94482;-72
2023/04/03 22:58:33;;;;;;;;;;;17.10;55.30;;;;;;10128715;28;92475;-71
2023/04/03 23:03:36;;;;;;;;;;;17.10;55.20;;;;;;10128635;28;92949;-71
2023/04/03 23:08:38;;;;;;;;;;;17.00;55.20;;;;;;10110045;28;93815;-71
2023/04/03 23:13:42;;;;;;;;;;;17.00;55.20;;;;;;10127715;28;92533;-72
2023/04/03 23:18:44;;;;;;;;;;;17.00;55.20;;;;;;10125126;28;96913;-71
2023/04/03 23:23:45;;;;;;;;;;;17.00;55.20;;;;;;10127197;28;92579;-72
2023/04/03 23:28:47;;;;;;;;;;;17.00;55.20;;;;;;10127413;28;93303;-71
2023/04/03 23:33:49;;;;;;;;;;;17.00;55.00;;;;;;10134607;28;93584;-71
2023/04/03 23:38:54;;;;;;;;;;;16.90;55.00;;;;;;10116098;28;93326;-72
2023/04/03 23:43:56;;;;;;;;;;;16.90;55.00;;;;;;10133305;28;93401;-71
2023/04/03 23:48:58;;;;;;;;;;;16.90;54.90;;;;;;10132393;28;93521;-71
2023/04/03 23:53:59;;;;;;;;;;;16.90;55.00;;;;;;10135123;28;93396;-70
2023/04/03 23:59:01;;;;;;;;;;;16.90;54.90;;;;;;10133844;28;93962;-71
